Mill Spring, Missouri
Current Conditions -  °F | °C
As of 1:53 PM on Monday 26 Jan 2015 (Local Time) from KPOF Reporting Station
Clear Clear  
Wind Chill: 37°   Ceiling: Unl
Heat Index: 43°   Visibility: 10mi
Dew Point: 32°   Wind: 12mph
Humidity: 65%   Direction: 200°SSW
Pressure: 29.93"   Gusts: NA
Location:  37.06°N, 90.68°W
Report Text: KPOF 261953Z AUTO 20010KT 10SM CLR 06/00 A2993 RMK AO2 SLP140 T00610000
Loading
Personal Weather Stations






























Interactive Weather Map New forecast layout! Learn more

10-Day Weather Forecast

Advertisements
Track Severe Weather on mobile